createdAt,value
2022-08-10T00:00:11.669Z,1000.85
2022-08-10T00:01:11.702Z,1000.86
2022-08-10T00:02:11.680Z,1000.80
2022-08-10T00:03:11.685Z,1000.90
2022-08-10T00:04:21.063Z,1000.94
2022-08-10T00:05:11.665Z,1000.96
2022-08-10T00:06:11.690Z,1000.87
2022-08-10T00:07:11.670Z,1000.92
2022-08-10T00:08:11.688Z,1000.91
2022-08-10T00:09:11.682Z,1000.92
2022-08-10T00:10:11.705Z,1000.92
2022-08-10T00:11:16.782Z,1000.94
2022-08-10T00:12:11.690Z,1000.91
2022-08-10T00:13:11.724Z,1000.91
2022-08-10T00:14:11.679Z,1000.94
2022-08-10T00:15:11.707Z,1000.88
2022-08-10T00:16:11.709Z,1000.98
2022-08-10T00:17:11.690Z,1000.89
2022-08-10T00:18:11.724Z,1000.91
2022-08-10T00:19:11.709Z,1000.90
2022-08-10T00:20:11.692Z,1000.90
2022-08-10T00:21:11.689Z,1000.92
2022-08-10T00:22:11.699Z,1000.97
2022-08-10T00:23:11.711Z,1000.95
2022-08-10T00:24:11.692Z,1000.88
2022-08-10T00:25:11.705Z,1000.97
2022-08-10T00:26:11.714Z,1000.88
2022-08-10T00:28:00.720Z,1000.93
2022-08-10T00:28:11.707Z,1000.89
2022-08-10T00:29:12.005Z,1000.95
2022-08-10T00:30:11.701Z,1000.94
2022-08-10T00:31:11.703Z,1000.94
2022-08-10T00:32:11.719Z,1000.91
2022-08-10T00:33:11.724Z,1000.95
2022-08-10T00:34:11.718Z,1000.95
2022-08-10T00:35:11.721Z,1000.89
2022-08-10T00:36:11.722Z,1000.89
2022-08-10T00:37:11.714Z,1000.94
2022-08-10T00:38:11.707Z,1000.87
2022-08-10T00:39:15.889Z,1000.90
2022-08-10T00:40:11.716Z,1000.82
2022-08-10T00:41:11.718Z,1000.93
2022-08-10T00:42:11.707Z,1000.81
2022-08-10T00:43:11.753Z,1000.86
2022-08-10T00:44:11.704Z,1000.83
2022-08-10T00:45:11.722Z,1000.85
2022-08-10T00:46:11.725Z,1000.85
2022-08-10T00:47:35.336Z,1000.84
2022-08-10T00:48:11.731Z,1000.81
2022-08-10T00:49:11.734Z,1000.79
2022-08-10T00:50:11.725Z,1000.81
2022-08-10T00:51:11.743Z,1000.78
2022-08-10T00:52:11.714Z,1000.73
2022-08-10T00:53:11.742Z,1000.82
2022-08-10T00:54:23.922Z,1000.82
2022-08-10T00:55:11.725Z,1000.76
2022-08-10T00:57:14.782Z,1000.74
2022-08-10T00:57:17.575Z,1000.73
2022-08-10T00:58:11.758Z,1000.73
2022-08-10T00:59:11.736Z,1000.70
2022-08-10T01:00:11.745Z,1000.70
2022-08-10T01:02:07.691Z,1000.71
2022-08-10T01:02:11.936Z,1000.70
2022-08-10T01:03:11.748Z,1000.71
2022-08-10T01:04:36.369Z,1000.71
2022-08-10T01:05:11.777Z,1000.67
2022-08-10T01:06:15.234Z,1000.70
2022-08-10T01:07:11.765Z,1000.67
2022-08-10T01:08:11.780Z,1000.67
2022-08-10T01:09:11.733Z,1000.64
2022-08-10T01:10:11.749Z,1000.74
2022-08-10T01:12:31.430Z,1000.63
2022-08-10T01:12:39.888Z,1000.68
2022-08-10T01:13:11.758Z,1000.71
2022-08-10T01:14:11.751Z,1000.70
2022-08-10T01:15:11.758Z,1000.70
2022-08-10T01:16:14.022Z,1000.80
2022-08-10T01:17:11.749Z,1000.74
2022-08-10T01:18:11.771Z,1000.70
2022-08-10T01:19:11.773Z,1000.77
2022-08-10T01:20:11.773Z,1000.72
2022-08-10T01:21:11.772Z,1000.68
2022-08-10T01:22:11.765Z,1000.71
2022-08-10T01:23:11.778Z,1000.71
2022-08-10T01:24:11.786Z,1000.77
2022-08-10T01:25:11.775Z,1000.73
2022-08-10T01:26:30.695Z,1000.74
2022-08-10T01:27:11.776Z,1000.90
2022-08-10T01:28:11.794Z,1000.81
2022-08-10T01:29:11.777Z,1000.84
2022-08-10T01:30:11.825Z,1000.73
2022-08-10T01:31:11.785Z,1000.70
2022-08-10T01:32:11.790Z,1000.81
2022-08-10T01:33:11.799Z,1000.72
2022-08-10T01:34:11.781Z,1000.75
2022-08-10T01:35:11.785Z,1000.67
2022-08-10T01:36:11.812Z,1000.71
2022-08-10T01:37:11.777Z,1000.75
2022-08-10T01:38:11.802Z,1000.75
2022-08-10T01:39:11.818Z,1000.75
2022-08-10T01:40:11.785Z,1000.73
2022-08-10T01:41:11.791Z,1000.64
2022-08-10T01:42:11.800Z,1000.70
2022-08-10T01:43:11.829Z,1000.66
2022-08-10T01:44:11.791Z,1000.67
2022-08-10T01:45:11.803Z,1000.66
2022-08-10T01:46:11.800Z,1000.69
2022-08-10T01:47:11.793Z,1000.69
2022-08-10T01:48:16.568Z,1000.76
2022-08-10T01:49:11.809Z,1000.69
2022-08-10T01:50:11.820Z,1000.78
2022-08-10T01:51:11.792Z,1000.77
2022-08-10T01:52:11.799Z,1000.79
2022-08-10T01:53:11.820Z,1000.82
2022-08-10T01:54:13.124Z,1000.80
2022-08-10T01:55:11.821Z,1000.85
2022-08-10T01:56:11.794Z,1000.72
2022-08-10T01:57:11.808Z,1000.87
2022-08-10T01:58:11.810Z,1000.84
2022-08-10T01:59:11.812Z,1000.82
2022-08-10T02:00:11.842Z,1000.74
2022-08-10T02:01:16.996Z,1000.77
2022-08-10T02:02:11.819Z,1000.80
2022-08-10T02:03:11.834Z,1000.74
2022-08-10T02:04:11.850Z,1000.83
2022-08-10T02:05:11.854Z,1000.81
2022-08-10T02:06:11.813Z,1000.84
2022-08-10T02:07:11.816Z,1000.83
2022-08-10T02:08:11.828Z,1000.83
2022-08-10T02:09:11.830Z,1000.81
2022-08-10T02:10:11.839Z,1000.81
2022-08-10T02:11:11.829Z,1000.83
2022-08-10T02:12:11.814Z,1000.88
2022-08-10T02:13:11.844Z,1000.85
2022-08-10T02:14:11.846Z,1000.80
2022-08-10T02:15:11.843Z,1000.94
2022-08-10T02:16:11.835Z,1000.81
2022-08-10T02:17:59.323Z,1000.79
2022-08-10T02:18:11.864Z,1000.81
2022-08-10T02:19:12.007Z,1000.76
2022-08-10T02:20:31.869Z,1000.83
2022-08-10T02:21:11.834Z,1000.79
2022-08-10T02:22:37.920Z,1000.85
2022-08-10T02:23:11.861Z,1000.87
2022-08-10T02:24:11.836Z,1000.86
2022-08-10T02:25:39.547Z,1000.80
2022-08-10T02:26:11.866Z,1000.92
2022-08-10T02:27:11.854Z,1000.86
2022-08-10T02:28:11.873Z,1000.82
2022-08-10T02:29:11.841Z,1000.76
2022-08-10T02:30:11.856Z,1000.80
2022-08-10T02:31:12.144Z,1000.86
2022-08-10T02:32:11.861Z,1000.82
2022-08-10T02:33:11.844Z,1000.90
2022-08-10T02:34:11.855Z,1000.86
2022-08-10T02:35:22.057Z,1000.80
2022-08-10T02:36:11.845Z,1000.85
2022-08-10T02:37:13.453Z,1000.82
2022-08-10T02:38:11.871Z,1000.79
2022-08-10T02:39:11.903Z,1000.88
2022-08-10T02:45:03.527Z,1000.93
2022-08-10T02:45:13.461Z,1000.98
2022-08-10T02:45:14.245Z,1000.98
2022-08-10T02:45:14.469Z,1000.96
2022-08-10T02:45:20.984Z,1000.94
2022-08-10T02:45:25.475Z,1000.96
2022-08-10T02:46:11.871Z,1000.92
2022-08-10T02:47:11.878Z,1000.98
2022-08-10T02:48:11.894Z,1000.98
2022-08-10T02:49:11.856Z,1000.97
2022-08-10T02:50:11.873Z,1000.95
2022-08-10T02:51:11.867Z,1000.94
2022-08-10T02:52:11.865Z,1001.05
2022-08-10T02:53:51.662Z,1000.91
2022-08-10T02:54:11.876Z,1001.01
2022-08-10T02:55:17.864Z,1000.91
2022-08-10T02:56:11.851Z,1000.93
2022-08-10T02:57:11.874Z,1000.89
2022-08-10T02:58:15.258Z,1000.91
2022-08-10T02:59:11.880Z,1000.94
2022-08-10T03:00:11.882Z,1000.97
2022-08-10T03:01:11.907Z,1000.93
2022-08-10T03:02:11.884Z,1000.96
2022-08-10T03:03:11.901Z,1000.94
2022-08-10T03:04:11.895Z,1000.99
2022-08-10T03:05:11.905Z,1000.98
2022-08-10T03:06:11.923Z,1001.01
2022-08-10T03:07:11.888Z,1000.96
2022-08-10T03:08:11.891Z,1000.99
2022-08-10T03:09:11.890Z,1001.00
2022-08-10T03:10:13.369Z,1001.04
2022-08-10T03:11:11.910Z,1000.95
2022-08-10T03:12:35.126Z,1000.93
2022-08-10T03:13:11.936Z,1000.91
2022-08-10T03:14:11.896Z,1000.91
2022-08-10T03:15:15.736Z,1001.01
2022-08-10T03:16:11.916Z,1000.90
2022-08-10T03:17:11.912Z,1000.89
2022-08-10T03:18:11.924Z,1000.89
2022-08-10T03:20:35.413Z,1001.02
2022-08-10T03:20:38.245Z,1000.97
2022-08-10T03:21:12.100Z,1001.02
2022-08-10T03:22:11.915Z,1000.89
2022-08-10T03:23:11.926Z,1000.91
2022-08-10T03:24:18.792Z,1000.91
2022-08-10T03:25:11.909Z,1000.91
2022-08-10T03:26:11.914Z,1000.88
2022-08-10T03:27:11.918Z,1000.86
2022-08-10T03:28:11.926Z,1000.94
2022-08-10T03:29:11.906Z,1000.96
2022-08-10T03:30:28.443Z,1000.85
2022-08-10T03:31:11.928Z,1000.84
2022-08-10T03:32:11.920Z,1000.91
2022-08-10T03:33:11.919Z,1000.91
2022-08-10T03:34:22.270Z,1000.87
2022-08-10T03:35:11.926Z,1000.90
2022-08-10T03:36:42.401Z,1000.79
2022-08-10T03:37:11.932Z,1000.88
2022-08-10T03:38:11.952Z,1000.79
2022-08-10T03:39:11.971Z,1000.90
2022-08-10T03:40:11.933Z,1000.78
2022-08-10T03:41:15.948Z,1000.86
2022-08-10T03:42:11.927Z,1000.80
2022-08-10T03:43:11.943Z,1000.77
2022-08-10T03:44:11.940Z,1000.67
2022-08-10T03:45:11.931Z,1000.70
2022-08-10T03:46:11.937Z,1000.85
2022-08-10T03:47:15.278Z,1000.81
2022-08-10T03:48:11.957Z,1000.87
2022-08-10T03:49:11.944Z,1000.79
2022-08-10T03:50:45.448Z,1000.79
2022-08-10T03:51:11.967Z,1000.82
2022-08-10T03:52:11.938Z,1000.84
2022-08-10T03:53:24.215Z,1000.80
2022-08-10T03:54:11.940Z,1000.83
2022-08-10T03:55:11.951Z,1000.79
2022-08-10T03:56:26.851Z,1000.72
2022-08-10T03:57:11.943Z,1000.79
2022-08-10T03:58:11.983Z,1000.82
2022-08-10T03:59:11.956Z,1000.80
2022-08-10T04:00:11.956Z,1000.82
2022-08-10T04:01:12.013Z,1000.81
2022-08-10T04:02:46.823Z,1000.85
2022-08-10T04:03:11.984Z,1000.83
2022-08-10T04:04:14.523Z,1000.87
2022-08-10T04:05:11.944Z,1000.91
2022-08-10T04:06:11.943Z,1000.88
2022-08-10T04:07:11.959Z,1000.93
2022-08-10T04:08:11.974Z,1000.91
2022-08-10T04:09:11.958Z,1000.94
2022-08-10T04:10:13.074Z,1000.90
2022-08-10T04:11:11.965Z,1000.92
2022-08-10T04:12:11.970Z,1000.94
2022-08-10T04:13:11.984Z,1000.92
2022-08-10T04:14:38.787Z,1000.99
2022-08-10T04:15:11.969Z,1000.92
2022-08-10T04:16:11.964Z,1000.95
2022-08-10T04:17:14.042Z,1000.97
2022-08-10T04:18:11.959Z,1000.96
2022-08-10T04:19:11.972Z,1000.99
2022-08-10T04:20:11.961Z,1001.01
2022-08-10T04:21:11.976Z,1001.03
2022-08-10T04:22:11.967Z,1000.99
2022-08-10T04:23:12.002Z,1001.00
2022-08-10T04:24:11.979Z,1000.97
2022-08-10T04:25:11.985Z,1001.05
2022-08-10T04:26:11.983Z,1001.07
2022-08-10T04:27:11.973Z,1001.10
2022-08-10T04:28:11.988Z,1001.10
2022-08-10T04:29:11.994Z,1001.04
2022-08-10T04:30:11.986Z,1001.06
2022-08-10T04:31:11.993Z,1001.13
2022-08-10T04:32:12.007Z,1001.04
2022-08-10T04:33:12.009Z,1001.08
2022-08-10T04:34:11.989Z,1001.06
2022-08-10T04:35:12.016Z,1001.13
2022-08-10T04:36:11.993Z,1001.09
2022-08-10T04:37:11.990Z,1001.11
2022-08-10T04:38:12.001Z,1001.05
2022-08-10T04:39:12.045Z,1001.15
2022-08-10T04:40:28.401Z,1001.12
2022-08-10T04:41:11.986Z,1001.14
2022-08-10T04:42:12.017Z,1001.12
2022-08-10T04:43:13.144Z,1001.19
2022-08-10T04:44:11.996Z,1001.12
2022-08-10T04:45:11.981Z,1001.16
2022-08-10T04:46:43.085Z,1001.08
2022-08-10T04:47:11.986Z,1001.06
2022-08-10T04:48:43.198Z,1001.15
2022-08-10T04:49:52.140Z,1001.14
2022-08-10T04:50:12.013Z,1001.15
2022-08-10T04:51:16.967Z,1001.15
2022-08-10T04:52:12.009Z,1001.08
2022-08-10T04:53:12.028Z,1001.11
2022-08-10T04:54:14.230Z,1001.09
2022-08-10T04:55:12.003Z,1001.04
2022-08-10T04:56:12.010Z,1001.05
2022-08-10T04:57:12.028Z,1001.07
2022-08-10T04:58:12.047Z,1001.02
2022-08-10T04:59:12.012Z,1001.07
2022-08-10T05:00:18.103Z,1001.00
2022-08-10T05:01:12.104Z,1001.05
2022-08-10T05:02:30.088Z,1000.99
2022-08-10T05:03:12.031Z,1000.98
2022-08-10T05:04:35.507Z,1001.03
2022-08-10T05:05:12.033Z,1001.04
2022-08-10T05:06:12.010Z,1001.01
2022-08-10T05:07:15.825Z,1001.04
2022-08-10T05:08:12.049Z,1001.05
2022-08-10T05:09:12.042Z,1001.01
2022-08-10T05:10:13.578Z,1001.06
2022-08-10T05:11:12.045Z,1001.07
2022-08-10T05:12:12.031Z,1001.10
2022-08-10T05:13:12.054Z,1001.08
2022-08-10T05:14:12.038Z,1001.11
2022-08-10T05:15:12.036Z,1001.11
2022-08-10T05:16:12.067Z,1001.12
2022-08-10T05:17:12.049Z,1001.08
2022-08-10T05:18:12.057Z,1001.11
2022-08-10T05:19:12.050Z,1001.09
2022-08-10T05:20:12.050Z,1001.21
2022-08-10T05:21:12.047Z,1001.13
2022-08-10T05:22:12.059Z,1001.14
2022-08-10T05:23:12.054Z,1001.11
2022-08-10T05:24:12.049Z,1001.09
2022-08-10T05:25:12.037Z,1001.13
2022-08-10T05:26:12.042Z,1001.21
2022-08-10T05:27:12.046Z,1001.13
2022-08-10T05:28:12.072Z,1001.16
2022-08-10T05:29:12.053Z,1001.13
2022-08-10T05:30:12.056Z,1001.09
2022-08-10T05:31:12.068Z,1001.05
2022-08-10T05:32:12.193Z,1001.08
2022-08-10T05:33:12.205Z,1001.03
2022-08-10T05:34:20.484Z,1001.12
2022-08-10T05:35:12.229Z,1001.12
2022-08-10T05:36:12.234Z,1001.10
2022-08-10T05:38:11.948Z,1001.08
2022-08-10T05:38:14.708Z,1001.04
2022-08-10T05:39:12.225Z,1001.09
2022-08-10T05:40:12.204Z,1001.12
2022-08-10T05:41:12.203Z,1001.09
2022-08-10T05:42:12.228Z,1001.03
2022-08-10T05:43:12.237Z,1001.05
2022-08-10T05:44:12.229Z,1001.08
2022-08-10T05:45:12.232Z,1001.06
2022-08-10T05:46:18.233Z,1001.10
2022-08-10T05:47:12.870Z,1000.99
2022-08-10T05:48:53.811Z,1001.15
2022-08-10T05:49:12.228Z,1001.12
2022-08-10T05:50:12.208Z,1001.07
2022-08-10T05:51:12.260Z,1001.10
2022-08-10T05:52:12.220Z,1001.02
2022-08-10T05:54:02.964Z,1001.04
2022-08-10T05:54:12.256Z,1001.06
2022-08-10T05:55:12.229Z,1001.07
2022-08-10T05:56:12.245Z,1001.04
2022-08-10T05:57:12.241Z,1001.06
2022-08-10T05:58:12.242Z,1001.08
2022-08-10T05:59:12.229Z,1001.14
2022-08-10T06:00:34.113Z,1001.08
2022-08-10T06:01:12.255Z,1001.13
2022-08-10T06:02:33.349Z,1001.16
2022-08-10T06:03:12.238Z,1001.14
2022-08-10T06:04:12.228Z,1001.15
2022-08-10T06:05:12.237Z,1001.12
2022-08-10T06:06:12.240Z,1001.12
2022-08-10T06:07:13.029Z,1001.15
2022-08-10T06:08:12.260Z,1001.15
2022-08-10T06:09:12.242Z,1001.15
2022-08-10T06:10:12.243Z,1001.13
2022-08-10T06:12:25.694Z,1001.06
2022-08-10T06:12:26.063Z,1001.15
2022-08-10T06:13:19.355Z,1001.12
2022-08-10T06:14:12.970Z,1001.12
2022-08-10T06:15:22.069Z,1001.16
2022-08-10T06:16:12.269Z,1001.15
2022-08-10T06:17:12.255Z,1001.10
2022-08-10T06:18:12.273Z,1001.15
2022-08-10T06:19:15.033Z,1001.12
2022-08-10T06:20:12.257Z,1001.14
2022-08-10T06:21:12.267Z,1001.10
2022-08-10T06:22:12.265Z,1001.10
2022-08-10T06:23:12.254Z,1001.10
2022-08-10T06:24:12.259Z,1001.05
2022-08-10T06:25:51.089Z,1001.08
2022-08-10T06:26:14.122Z,1001.19
2022-08-10T06:27:12.257Z,1001.19
2022-08-10T06:28:12.280Z,1001.03
2022-08-10T06:29:12.275Z,1001.12
2022-08-10T06:30:20.352Z,1001.04
2022-08-10T06:31:12.275Z,1001.08
2022-08-10T06:32:12.277Z,1001.04
2022-08-10T06:33:12.289Z,1001.04
2022-08-10T06:34:12.278Z,1001.06
2022-08-10T06:35:12.269Z,1001.00
2022-08-10T06:36:12.264Z,1001.10
2022-08-10T06:37:12.288Z,1001.08
2022-08-10T06:38:12.264Z,1001.09
2022-08-10T06:39:32.306Z,1001.09
2022-08-10T06:40:12.417Z,1001.14
2022-08-10T06:41:15.618Z,1001.14
2022-08-10T06:42:14.601Z,1001.10
2022-08-10T06:43:12.306Z,1001.18
2022-08-10T06:44:12.285Z,1001.11
2022-08-10T06:45:12.280Z,1001.05
2022-08-10T06:46:12.289Z,1001.11
2022-08-10T06:47:12.294Z,1001.06
2022-08-10T06:48:12.305Z,1001.01
2022-08-10T06:49:12.279Z,1001.04
2022-08-10T06:50:12.302Z,1001.03
2022-08-10T06:51:12.282Z,1001.02
2022-08-10T06:52:17.716Z,1001.08
2022-08-10T06:53:12.299Z,1001.10
2022-08-10T06:54:12.290Z,1001.11
2022-08-10T06:55:12.317Z,1001.11
2022-08-10T06:56:12.290Z,1001.13
2022-08-10T06:57:18.408Z,1001.07
2022-08-10T06:58:12.309Z,1001.06
2022-08-10T06:59:21.122Z,1001.04
2022-08-10T07:00:14.097Z,1001.09
2022-08-10T07:01:12.398Z,1001.05
2022-08-10T07:02:12.306Z,1001.03
2022-08-10T07:03:12.326Z,1001.12
2022-08-10T07:04:12.307Z,1001.12
2022-08-10T07:05:12.309Z,1001.09
2022-08-10T07:06:12.320Z,1001.08
2022-08-10T07:07:12.309Z,1001.15
2022-08-10T07:08:12.330Z,1001.15
2022-08-10T07:09:12.339Z,1001.16
2022-08-10T07:10:12.313Z,1001.16
2022-08-10T07:11:12.325Z,1001.19
2022-08-10T07:12:12.333Z,1001.16
2022-08-10T07:13:12.384Z,1001.17
2022-08-10T07:14:17.120Z,1001.25
2022-08-10T07:15:12.328Z,1001.21
2022-08-10T07:16:12.362Z,1001.20
2022-08-10T07:17:15.334Z,1001.14
2022-08-10T07:18:12.349Z,1001.14
2022-08-10T07:19:12.324Z,1001.21
2022-08-10T07:20:12.337Z,1001.23
2022-08-10T07:21:12.344Z,1001.11
2022-08-10T07:23:08.738Z,1001.21
2022-08-10T07:23:57.015Z,1001.18
2022-08-10T07:24:12.353Z,1001.16
2022-08-10T07:25:12.365Z,1001.13
2022-08-10T07:26:12.335Z,1001.16
2022-08-10T07:27:12.339Z,1001.06
2022-08-10T07:28:12.334Z,1001.07
2022-08-10T07:29:26.794Z,1001.06
2022-08-10T07:30:12.341Z,1001.09
2022-08-10T07:31:36.040Z,1001.11
2022-08-10T07:32:12.365Z,1001.16
2022-08-10T07:33:12.360Z,1001.09
2022-08-10T07:34:12.364Z,1001.10
2022-08-10T07:35:12.348Z,1001.08
2022-08-10T07:36:12.351Z,1001.12
2022-08-10T07:37:12.357Z,1001.08
2022-08-10T07:38:12.374Z,1001.13
2022-08-10T07:39:12.421Z,1001.18
2022-08-10T07:40:12.404Z,1001.10
2022-08-10T07:41:12.356Z,1001.15
2022-08-10T07:42:12.378Z,1001.10
2022-08-10T07:43:12.371Z,1001.09
2022-08-10T07:44:12.385Z,1001.14
2022-08-10T07:45:12.363Z,1001.13
2022-08-10T07:46:12.391Z,1001.16
2022-08-10T07:47:12.386Z,1001.15
2022-08-10T07:48:12.387Z,1001.13
2022-08-10T07:49:17.040Z,1001.13
2022-08-10T07:50:12.381Z,1001.13
2022-08-10T07:51:12.378Z,1001.10
2022-08-10T07:52:12.379Z,1001.15
2022-08-10T07:53:12.406Z,1001.17
2022-08-10T07:54:12.356Z,1001.15
2022-08-10T07:55:12.373Z,1001.18
2022-08-10T07:56:26.380Z,1001.19
2022-08-10T07:57:12.406Z,1001.21
2022-08-10T07:58:12.390Z,1001.14
2022-08-10T07:59:12.405Z,1001.16
2022-08-10T08:00:12.383Z,1001.24
2022-08-10T08:01:12.393Z,1001.18
2022-08-10T08:02:12.462Z,1001.27
2022-08-10T08:03:13.289Z,1001.19
2022-08-10T08:04:12.396Z,1001.22
2022-08-10T08:05:12.414Z,1001.16
2022-08-10T08:06:12.444Z,1001.23
2022-08-10T08:07:12.411Z,1001.24
2022-08-10T08:08:12.399Z,1001.21
2022-08-10T08:09:12.415Z,1001.20
2022-08-10T08:10:12.410Z,1001.21
2022-08-10T08:11:25.479Z,1001.20
2022-08-10T08:12:12.399Z,1001.27
2022-08-10T08:13:12.413Z,1001.25
2022-08-10T08:14:12.419Z,1001.17
2022-08-10T08:16:17.456Z,1001.14
2022-08-10T08:16:18.437Z,1001.17
2022-08-10T08:17:12.412Z,1001.15
2022-08-10T08:18:12.431Z,1001.12
2022-08-10T08:19:35.922Z,1001.13
2022-08-10T08:20:12.457Z,1001.10
2022-08-10T08:24:02.436Z,1001.14
2022-08-10T08:24:10.786Z,1001.05
2022-08-10T08:24:14.787Z,1001.13
2022-08-10T08:24:32.935Z,1001.13
2022-08-10T08:25:14.355Z,1001.07
2022-08-10T08:26:12.424Z,1001.00
2022-08-10T08:27:12.412Z,1001.05
2022-08-10T08:28:12.464Z,1001.05
2022-08-10T08:29:12.450Z,1001.08
2022-08-10T08:30:12.442Z,1001.09
2022-08-10T08:31:12.434Z,1001.10
2022-08-10T08:32:12.429Z,1000.99
2022-08-10T08:33:12.446Z,1001.01
2022-08-10T08:34:12.493Z,1001.03
2022-08-10T08:35:12.458Z,1001.00
2022-08-10T08:36:12.429Z,1001.10
2022-08-10T08:37:12.453Z,1001.08
2022-08-10T08:38:30.167Z,1001.10
2022-08-10T08:39:12.539Z,1001.05
2022-08-10T08:40:12.444Z,1001.04
2022-08-10T08:41:12.461Z,1001.02
2022-08-10T08:42:12.447Z,1001.08
2022-08-10T08:43:12.466Z,1001.13
2022-08-10T08:44:12.459Z,1001.11
2022-08-10T08:45:12.451Z,1001.07
2022-08-10T08:46:12.457Z,1001.04
2022-08-10T08:48:03.134Z,1001.08
2022-08-10T08:48:12.496Z,1001.09
2022-08-10T08:49:12.476Z,1001.03
2022-08-10T08:50:12.487Z,1001.06
2022-08-10T08:51:12.461Z,1000.97
2022-08-10T08:52:18.069Z,1000.98
2022-08-10T08:53:21.389Z,1001.01
2022-08-10T08:54:12.469Z,1000.96
2022-08-10T08:55:58.077Z,1000.96
2022-08-10T08:56:12.464Z,1001.00
2022-08-10T08:57:12.477Z,1000.96
2022-08-10T08:58:12.509Z,1000.92
2022-08-10T08:59:12.479Z,1000.86
2022-08-10T09:00:12.721Z,1000.93
2022-08-10T09:01:12.504Z,1000.95
2022-08-10T09:02:12.529Z,1000.89
2022-08-10T09:03:12.512Z,1000.86
2022-08-10T09:04:20.098Z,1000.91
2022-08-10T09:05:12.489Z,1000.87
2022-08-10T09:06:12.487Z,1000.87
2022-08-10T09:08:00.393Z,1000.96
2022-08-10T09:08:12.503Z,1000.94
2022-08-10T09:09:12.495Z,1000.91
2022-08-10T09:10:12.491Z,1000.92
2022-08-10T09:11:12.510Z,1000.96
2022-08-10T09:12:12.508Z,1000.94
2022-08-10T09:13:12.513Z,1000.93
2022-08-10T09:14:12.492Z,1000.86
2022-08-10T09:15:12.511Z,1000.84
2022-08-10T09:16:12.498Z,1000.85
2022-08-10T09:17:12.523Z,1000.83
2022-08-10T09:18:12.520Z,1000.89
2022-08-10T09:19:19.441Z,1000.84
2022-08-10T09:20:12.515Z,1000.82
2022-08-10T09:21:12.507Z,1000.80
2022-08-10T09:22:17.522Z,1000.78
2022-08-10T09:23:12.521Z,1000.80
2022-08-10T09:24:12.521Z,1000.86
2022-08-10T09:25:12.513Z,1000.92
2022-08-10T09:26:12.510Z,1000.83
2022-08-10T09:27:12.536Z,1000.93
2022-08-10T09:28:12.534Z,1000.85
2022-08-10T09:29:13.469Z,1000.86
2022-08-10T09:30:12.528Z,1000.82
2022-08-10T09:31:22.427Z,1000.85
2022-08-10T09:36:16.126Z,1000.86
2022-08-10T09:36:24.757Z,1000.81
2022-08-10T09:36:25.390Z,1000.74
2022-08-10T09:36:25.997Z,1000.77
2022-08-10T09:36:26.784Z,1000.80
2022-08-10T09:37:12.531Z,1000.73
2022-08-10T09:38:12.547Z,1000.74
2022-08-10T09:40:05.913Z,1000.74
2022-08-10T09:41:00.191Z,1000.76
2022-08-10T09:41:13.552Z,1000.74
2022-08-10T09:42:14.944Z,1000.77
2022-08-10T09:43:25.159Z,1000.75
2022-08-10T09:44:12.536Z,1000.76
2022-08-10T09:45:12.537Z,1000.78
2022-08-10T09:46:12.553Z,1000.79
2022-08-10T09:47:12.544Z,1000.80
2022-08-10T09:48:12.560Z,1000.76
2022-08-10T09:49:17.281Z,1000.68
2022-08-10T09:50:12.551Z,1000.69
2022-08-10T09:51:45.350Z,1000.74
2022-08-10T09:52:12.570Z,1000.70
2022-08-10T09:53:12.558Z,1000.64
2022-08-10T09:54:12.547Z,1000.75
2022-08-10T09:55:12.560Z,1000.65
2022-08-10T09:56:18.465Z,1000.66
2022-08-10T09:57:54.834Z,1000.65
2022-08-10T09:58:12.595Z,1000.50
2022-08-10T09:59:56.660Z,1000.49
2022-08-10T10:00:12.587Z,1000.56
2022-08-10T10:01:58.311Z,1000.50
2022-08-10T10:02:12.580Z,1000.51
2022-08-10T10:03:12.649Z,1000.49
2022-08-10T10:04:12.580Z,1000.57
2022-08-10T10:05:12.580Z,1000.50
2022-08-10T10:06:12.595Z,1000.58
2022-08-10T10:07:12.575Z,1000.56
2022-08-10T10:08:12.604Z,1000.54
2022-08-10T10:09:12.592Z,1000.55
2022-08-10T10:10:12.595Z,1000.48
2022-08-10T10:11:12.617Z,1000.50
2022-08-10T10:12:12.606Z,1000.53
2022-08-10T10:13:12.612Z,1000.55
2022-08-10T10:14:12.793Z,1000.54
2022-08-10T10:15:12.615Z,1000.50
2022-08-10T10:16:12.611Z,1000.43
2022-08-10T10:17:12.578Z,1000.44
2022-08-10T10:18:12.604Z,1000.44
2022-08-10T10:19:12.612Z,1000.42
2022-08-10T10:20:12.670Z,1000.50
2022-08-10T10:21:51.262Z,1000.55
2022-08-10T10:22:12.595Z,1000.46
2022-08-10T10:23:12.628Z,1000.44
2022-08-10T10:24:22.426Z,1000.41
2022-08-10T10:25:20.734Z,1000.45
2022-08-10T10:26:18.334Z,1000.47
2022-08-10T10:27:16.550Z,1000.37
2022-08-10T10:28:12.641Z,1000.42
2022-08-10T10:29:37.433Z,1000.44
2022-08-10T10:30:12.671Z,1000.38
2022-08-10T10:31:16.891Z,1000.30
2022-08-10T10:32:12.637Z,1000.29
2022-08-10T10:33:13.257Z,1000.28
2022-08-10T10:34:12.637Z,1000.19
2022-08-10T10:35:12.608Z,1000.33
2022-08-10T10:36:12.639Z,1000.22
2022-08-10T10:37:12.616Z,1000.33
2022-08-10T10:38:12.683Z,1000.33
2022-08-10T10:39:12.698Z,1000.31
2022-08-10T10:40:12.729Z,1000.29
2022-08-10T10:41:12.636Z,1000.27
2022-08-10T10:42:28.951Z,1000.22
2022-08-10T10:43:12.662Z,1000.12
2022-08-10T10:44:12.639Z,1000.20
2022-08-10T10:45:12.623Z,1000.14
2022-08-10T10:46:12.649Z,1000.12
2022-08-10T10:47:12.638Z,1000.10
2022-08-10T10:48:23.772Z,1000.05
2022-08-10T10:49:12.653Z,1000.07
2022-08-10T10:50:12.700Z,1000.14
2022-08-10T10:51:12.655Z,1000.15
2022-08-10T10:52:12.650Z,1000.10
2022-08-10T10:53:12.688Z,1000.04
2022-08-10T10:54:12.661Z,1000.05
2022-08-10T10:55:12.665Z,1000.20
2022-08-10T10:56:14.273Z,1000.29
2022-08-10T10:57:12.667Z,1000.13
2022-08-10T10:58:12.689Z,1000.05
2022-08-10T10:59:53.423Z,1000.08
2022-08-10T11:00:12.711Z,1000.09
2022-08-10T11:01:12.695Z,1000.07
2022-08-10T11:02:12.653Z,1000.03
2022-08-10T11:03:12.687Z,999.96
2022-08-10T11:04:12.665Z,999.96
2022-08-10T11:05:12.685Z,999.92
2022-08-10T11:06:12.672Z,999.85
2022-08-10T11:07:13.125Z,999.91
2022-08-10T11:08:14.631Z,999.90
2022-08-10T11:10:08.942Z,999.94
2022-08-10T11:10:33.024Z,999.93
2022-08-10T11:11:20.365Z,999.93
2022-08-10T11:12:13.070Z,999.88
2022-08-10T11:14:24.341Z,999.93
2022-08-10T11:14:26.403Z,999.96
2022-08-10T11:15:12.769Z,999.89
2022-08-10T11:16:12.757Z,999.78
2022-08-10T11:17:12.775Z,999.81
2022-08-10T11:18:14.023Z,999.78
2022-08-10T11:19:12.779Z,999.77
2022-08-10T11:20:12.777Z,999.75
2022-08-10T11:21:13.576Z,999.70
2022-08-10T11:22:16.293Z,999.69
2022-08-10T11:23:12.790Z,999.67
2022-08-10T11:24:42.968Z,999.70
2022-08-10T11:25:12.771Z,999.70
2022-08-10T11:26:12.783Z,999.79
2022-08-10T11:27:21.651Z,999.78
2022-08-10T11:28:12.802Z,999.74
2022-08-10T11:29:12.798Z,999.78
2022-08-10T11:30:12.794Z,999.79
2022-08-10T11:31:12.779Z,999.72
2022-08-10T11:32:20.661Z,999.71
2022-08-10T11:33:12.812Z,999.75
2022-08-10T11:34:46.940Z,999.74
2022-08-10T11:35:13.067Z,999.67
2022-08-10T11:36:12.813Z,999.67
2022-08-10T11:37:12.797Z,999.65
2022-08-10T11:38:31.469Z,999.63
2022-08-10T11:39:14.667Z,999.53
2022-08-10T11:40:12.885Z,999.69
2022-08-10T11:42:09.401Z,999.62
2022-08-10T11:42:23.226Z,999.65
2022-08-10T11:43:12.815Z,999.65
2022-08-10T11:44:12.819Z,999.61
2022-08-10T11:45:12.822Z,999.59
2022-08-10T11:46:19.348Z,999.70
2022-08-10T11:47:12.821Z,999.65
2022-08-10T11:48:12.846Z,999.61
2022-08-10T11:49:12.825Z,999.54
2022-08-10T11:50:12.811Z,999.59
2022-08-10T11:51:12.802Z,999.54
2022-08-10T11:52:12.828Z,999.65
2022-08-10T11:53:12.844Z,999.61
2022-08-10T11:54:12.819Z,999.61
2022-08-10T11:55:12.817Z,999.65
2022-08-10T11:56:12.826Z,999.68
2022-08-10T11:57:12.818Z,999.70
2022-08-10T11:58:12.863Z,999.63
2022-08-10T11:59:16.959Z,999.61
2022-08-10T12:00:12.856Z,999.49
2022-08-10T12:01:12.855Z,999.48
2022-08-10T12:02:12.914Z,999.51
2022-08-10T12:03:12.858Z,999.48
2022-08-10T12:04:12.832Z,999.45
2022-08-10T12:05:12.847Z,999.46
2022-08-10T12:06:12.845Z,999.49
2022-08-10T12:10:04.278Z,999.51